Time;durP1;ratioP1;P1;durP2;ratioP2;P2;SDS_P1;SDS_P2;PMS_P1;PMS_P2;Temp;Humidity;BMP_temperature;BMP_pressure;BME280_temperature;BME280_humidity;BME280_pressure;Samples;Min_cycle;Max_cycle;Signal;HPM_P1;HPM_P2
2021/03/25 00:01:03;;;;;;;28.97;16.60;;;-1.00;99.90;;;;;;6165599;28;20237;-76
2021/03/25 00:04:05;;;;;;;31.73;17.53;;;-1.10;99.90;;;;;;6165292;28;20244;-76
2021/03/25 00:07:07;;;;;;;31.53;18.23;;;-1.10;99.90;;;;;;6182273;28;20622;-76
2021/03/25 00:10:14;;;;;;;34.27;18.63;;;-1.10;99.90;;;;;;6163513;28;20233;-76
2021/03/25 00:13:17;;;;;;;30.73;17.70;;;-1.10;99.90;;;;;;6148422;28;20229;-76
2021/03/25 00:16:19;;;;;;;32.37;18.43;;;-1.10;99.90;;;;;;6181912;28;20323;-76
2021/03/25 00:19:21;;;;;;;33.07;17.60;;;-1.10;99.90;;;;;;6164753;28;20232;-76
2021/03/25 00:22:23;;;;;;;28.30;17.33;;;-1.20;99.90;;;;;;6185397;28;20241;-76
2021/03/25 00:25:31;;;;;;;30.53;16.13;;;-1.20;99.90;;;;;;6186082;28;20237;-76
2021/03/25 00:28:33;;;;;;;33.50;17.90;;;-1.20;99.90;;;;;;6168577;28;20241;-76
2021/03/25 00:31:35;;;;;;;30.40;17.47;;;-1.20;99.90;;;;;;6184345;28;20228;-76
2021/03/25 00:34:37;;;;;;;27.23;16.57;;;-1.20;99.90;;;;;;6169162;28;20236;-76
2021/03/25 00:37:39;;;;;;;32.17;17.97;;;-1.10;99.90;;;;;;6186047;28;20233;-76
2021/03/25 00:40:43;;;;;;;33.57;18.70;;;-1.20;99.90;;;;;;6168254;28;20236;-76
2021/03/25 00:43:45;;;;;;;33.30;17.73;;;-1.20;99.90;;;;;;6153292;28;20241;-76
2021/03/25 00:46:47;;;;;;;33.67;17.30;;;-1.30;99.90;;;;;;6152440;28;20255;-76
2021/03/25 00:49:49;;;;;;;29.37;16.80;;;-1.30;99.90;;;;;;6168988;28;20243;-76
2021/03/25 00:52:52;;;;;;;30.93;17.20;;;-1.30;99.90;;;;;;6153334;28;20233;-76
2021/03/25 00:55:54;;;;;;;32.73;17.93;;;-1.30;99.90;;;;;;6184686;28;20243;-76
2021/03/25 00:58:56;;;;;;;33.83;16.67;;;-1.30;99.90;;;;;;6169671;28;20589;-76
2021/03/25 01:02:00;;;;;;;30.73;18.63;;;-1.30;99.90;;;;;;6183960;28;20233;-76
2021/03/25 01:05:04;;;;;;;31.87;16.90;;;-1.40;99.90;;;;;;6188987;28;20226;-76
2021/03/25 01:08:07;;;;;;;30.90;17.63;;;-1.40;99.90;;;;;;6168183;28;20239;-76
2021/03/25 01:11:14;;;;;;;29.97;15.67;;;-1.40;99.90;;;;;;6184566;28;20892;-76
2021/03/25 01:14:20;;;;;;;33.23;17.33;;;-1.40;99.90;;;;;;6167916;28;20758;-76
2021/03/25 01:17:21;;;;;;;33.63;17.77;;;-1.50;99.90;;;;;;6168583;28;20275;-76
2021/03/25 01:20:34;;;;;;;36.60;17.90;;;-1.50;99.90;;;;;;6152273;28;20229;-76
2021/03/25 01:23:36;;;;;;;38.07;20.00;;;-1.50;99.90;;;;;;6186168;28;20229;-76
2021/03/25 01:26:38;;;;;;;36.03;18.50;;;-1.50;99.90;;;;;;6167518;28;20271;-76
2021/03/25 01:29:44;;;;;;;37.70;19.63;;;-1.50;99.90;;;;;;6167521;28;20237;-76
2021/03/25 01:32:47;;;;;;;41.33;19.77;;;-1.50;99.90;;;;;;6167297;28;20315;-76
2021/03/25 01:35:51;;;;;;;32.30;17.70;;;-1.50;99.90;;;;;;6166586;28;20717;-76
2021/03/25 01:38:53;;;;;;;33.03;18.53;;;-1.50;99.90;;;;;;6167247;28;20403;-76
2021/03/25 01:41:58;;;;;;;31.83;17.67;;;-1.50;99.90;;;;;;6136966;28;20724;-76
2021/03/25 01:44:59;;;;;;;34.43;17.63;;;-1.50;99.90;;;;;;6134428;28;20709;-76
2021/03/25 01:48:04;;;;;;;34.07;17.83;;;-1.50;99.90;;;;;;6135830;28;20242;-76
2021/03/25 01:51:36;;;;;;;33.23;16.20;;;-1.50;99.90;;;;;;6136098;28;20207;-76
2021/03/25 01:54:48;;;;;;;27.03;15.47;;;-1.50;99.90;;;;;;6137069;28;20270;-76
2021/03/25 01:58:03;;;;;;;34.93;18.43;;;-1.60;99.90;;;;;;6137735;28;20238;-76
2021/03/25 02:01:31;;;;;;;29.43;16.63;;;-1.60;99.90;;;;;;6136131;28;20239;-76
2021/03/25 02:05:14;;;;;;;36.43;17.67;;;-1.60;99.90;;;;;;6135802;28;20230;-76
2021/03/25 02:08:39;;;;;;;36.50;18.10;;;-1.60;99.90;;;;;;6135081;28;20231;-76
2021/03/25 02:11:44;;;;;;;33.23;17.80;;;-1.60;99.90;;;;;;6135495;28;20246;-76
2021/03/25 02:15:06;;;;;;;36.20;16.77;;;-1.60;99.90;;;;;;6135625;28;20234;-76
2021/03/25 02:18:21;;;;;;;27.97;15.13;;;-1.60;99.90;;;;;;6150557;28;20435;-76
2021/03/25 02:21:52;;;;;;;31.40;17.03;;;-1.70;99.90;;;;;;6136272;28;20719;-76
2021/03/25 02:25:04;;;;;;;33.83;18.47;;;-1.70;99.90;;;;;;6135055;28;20231;-76
2021/03/25 02:29:02;;;;;;;29.73;16.67;;;-1.70;99.90;;;;;;6134891;28;20238;-76
2021/03/25 02:32:13;;;;;;;33.37;16.60;;;-1.70;99.90;;;;;;6125076;28;20607;-76
2021/03/25 02:35:21;;;;;;;32.37;16.77;;;-1.70;99.90;;;;;;6134957;28;20325;-76
2021/03/25 02:38:36;;;;;;;34.80;18.33;;;-1.70;99.90;;;;;;6140267;28;20257;-76
2021/03/25 02:41:43;;;;;;;31.63;17.10;;;-1.80;99.90;;;;;;6143447;28;20281;-76
2021/03/25 02:44:55;;;;;;;35.43;17.73;;;-1.80;99.90;;;;;;6135670;28;20233;-76
2021/03/25 02:48:12;;;;;;;34.37;18.03;;;-1.80;99.90;;;;;;6151701;28;20254;-76
2021/03/25 02:51:24;;;;;;;32.60;16.23;;;-1.80;99.90;;;;;;6133132;28;20238;-76
2021/03/25 02:54:27;;;;;;;30.17;16.73;;;-1.80;99.90;;;;;;6136289;28;20237;-76
2021/03/25 02:57:37;;;;;;;38.53;18.13;;;-1.80;99.90;;;;;;6149891;28;20230;-76
2021/03/25 03:00:58;;;;;;;31.03;15.33;;;-1.80;99.90;;;;;;6136700;28;20648;-76
2021/03/25 03:04:16;;;;;;;32.33;17.17;;;-1.80;99.90;;;;;;6135570;28;20234;-76
2021/03/25 03:07:26;;;;;;;29.13;16.17;;;-1.80;99.90;;;;;;6150273;28;20245;-76
2021/03/25 03:11:07;;;;;;;34.70;17.67;;;-1.90;99.90;;;;;;6149904;28;20313;-76
2021/03/25 03:14:15;;;;;;;31.10;17.10;;;-1.90;99.90;;;;;;6151438;28;20277;-76
2021/03/25 03:17:25;;;;;;;31.07;17.27;;;-2.00;99.90;;;;;;6137632;28;20828;-76
2021/03/25 03:21:17;;;;;;;30.87;16.33;;;-2.00;99.90;;;;;;6136572;28;20234;-76
2021/03/25 03:24:29;;;;;;;36.10;16.47;;;-2.00;99.90;;;;;;6149745;28;20338;-76
2021/03/25 03:28:07;;;;;;;30.60;15.27;;;-2.00;99.90;;;;;;6149833;28;20226;-76
2021/03/25 03:31:17;;;;;;;37.63;17.63;;;-2.00;99.90;;;;;;6134936;28;20609;-76
2021/03/25 03:34:33;;;;;;;32.03;16.90;;;-2.00;99.90;;;;;;6133800;28;20324;-76
2021/03/25 03:37:43;;;;;;;29.30;15.23;;;-2.00;99.90;;;;;;6132886;28;20329;-76
2021/03/25 03:40:57;;;;;;;26.27;14.30;;;-2.00;99.90;;;;;;6163932;28;20237;-77
2021/03/25 03:44:05;;;;;;;28.67;15.20;;;-2.10;99.90;;;;;;6164657;28;20622;-76
2021/03/25 03:47:10;;;;;;;31.27;16.17;;;-2.10;99.90;;;;;;6166053;28;20239;-75
2021/03/25 03:50:27;;;;;;;28.03;14.60;;;-2.10;99.90;;;;;;6164902;28;20347;-75
2021/03/25 03:53:30;;;;;;;30.50;16.40;;;-2.00;99.90;;;;;;6164600;28;20232;-75
2021/03/25 03:56:49;;;;;;;31.47;16.23;;;-2.10;99.90;;;;;;6166735;28;20295;-75
2021/03/25 04:00:02;;;;;;;32.77;16.23;;;-2.00;99.90;;;;;;6169640;28;20328;-75
2021/03/25 04:03:18;;;;;;;29.10;15.57;;;-2.10;99.90;;;;;;6186797;28;20639;-75
2021/03/25 04:06:55;;;;;;;27.77;15.17;;;-2.10;99.90;;;;;;6186210;28;20240;-75
2021/03/25 04:10:37;;;;;;;26.63;14.07;;;-2.20;99.90;;;;;;6169376;28;20244;-75
2021/03/25 04:14:35;;;;;;;31.60;14.57;;;-2.10;99.90;;;;;;6167924;28;20606;-75
2021/03/25 04:18:18;;;;;;;24.87;13.83;;;-2.10;99.90;;;;;;6083167;29;20235;-75
2021/03/25 04:21:52;;;;;;;31.30;15.87;;;-2.10;99.90;;;;;;6110078;29;20433;-75
2021/03/25 04:24:57;;;;;;;30.40;16.00;;;-2.10;99.90;;;;;;6113184;29;20748;-75
2021/03/25 04:28:13;;;;;;;29.07;15.93;;;-2.10;99.90;;;;;;6112587;29;20725;-75
2021/03/25 04:31:15;;;;;;;27.70;14.63;;;-2.20;99.90;;;;;;6111875;29;20227;-75
2021/03/25 04:34:17;;;;;;;27.17;15.03;;;-2.20;99.90;;;;;;6112293;29;20266;-75
2021/03/25 04:37:20;;;;;;;27.93;15.53;;;-2.20;99.90;;;;;;6120945;29;20823;-75
2021/03/25 04:40:28;;;;;;;27.00;15.67;;;-2.20;99.90;;;;;;6100693;29;20317;-75
2021/03/25 04:43:31;;;;;;;30.27;16.90;;;-2.20;99.90;;;;;;6111605;29;20230;-75
2021/03/25 04:46:44;;;;;;;30.07;16.13;;;-2.20;99.90;;;;;;6111303;29;20799;-75
2021/03/25 04:50:08;;;;;;;31.27;17.67;;;-2.20;99.90;;;;;;6110984;29;20258;-75
2021/03/25 04:53:30;;;;;;;33.43;16.40;;;-2.30;99.90;;;;;;6185345;28;20233;-75
2021/03/25 04:56:33;;;;;;;32.63;17.27;;;-2.30;99.90;;;;;;6185685;28;20324;-75
2021/03/25 04:59:37;;;;;;;35.87;18.00;;;-2.30;99.90;;;;;;6168822;28;20249;-75
2021/03/25 05:02:40;;;;;;;35.47;17.77;;;-2.30;99.90;;;;;;6186380;28;20237;-75
2021/03/25 05:05:42;;;;;;;34.00;17.80;;;-2.20;99.90;;;;;;6184310;28;20232;-75
2021/03/25 05:08:44;;;;;;;32.33;16.93;;;-2.20;99.90;;;;;;6185277;28;20618;-75
2021/03/25 05:11:46;;;;;;;37.17;18.33;;;-2.20;99.90;;;;;;6167781;28;20229;-75
2021/03/25 05:14:51;;;;;;;35.47;17.33;;;-2.10;99.90;;;;;;6168361;28;20232;-75
2021/03/25 05:18:19;;;;;;;33.93;17.40;;;-2.10;99.90;;;;;;6185851;28;20447;-75
2021/03/25 05:21:31;;;;;;;30.43;16.40;;;-2.00;99.90;;;;;;6167247;28;20299;-75
2021/03/25 05:24:38;;;;;;;30.67;17.17;;;-2.00;99.90;;;;;;6168208;28;20821;-75
2021/03/25 05:27:45;;;;;;;34.60;17.80;;;-2.00;99.90;;;;;;6166886;28;20225;-75
2021/03/25 05:30:50;;;;;;;34.90;17.03;;;-1.90;99.90;;;;;;6167747;28;20233;-75
2021/03/25 05:33:55;;;;;;;31.23;16.00;;;-1.90;99.90;;;;;;6167467;28;20233;-75
2021/03/25 05:36:59;;;;;;;31.13;17.37;;;-1.80;99.90;;;;;;6184909;28;20339;-75
2021/03/25 05:40:32;;;;;;;31.17;16.77;;;-1.70;99.90;;;;;;6184148;28;20726;-75
2021/03/25 05:43:46;;;;;;;31.37;16.03;;;-1.70;99.90;;;;;;6184578;28;20226;-75
2021/03/25 05:46:59;;;;;;;31.30;16.10;;;-1.60;99.90;;;;;;6183549;28;20233;-75
2021/03/25 05:50:34;;;;;;;32.47;17.27;;;-1.60;99.90;;;;;;6184597;28;20229;-75
2021/03/25 05:53:52;;;;;;;29.30;16.63;;;-1.60;99.90;;;;;;6184336;28;20229;-75
2021/03/25 05:57:07;;;;;;;28.00;15.67;;;-1.50;99.90;;;;;;6167961;28;20329;-75
2021/03/25 06:00:27;;;;;;;30.20;16.50;;;-1.50;99.90;;;;;;6184017;28;20304;-75
2021/03/25 06:03:32;;;;;;;28.83;16.43;;;-1.40;99.90;;;;;;6184329;28;20762;-75
2021/03/25 06:06:54;;;;;;;29.87;16.27;;;-1.40;99.90;;;;;;6167154;28;20595;-75
2021/03/25 06:10:36;;;;;;;36.87;18.47;;;-1.30;99.90;;;;;;6167213;28;20229;-75
2021/03/25 06:14:15;;;;;;;38.17;18.83;;;-1.30;99.90;;;;;;6157372;28;20236;-75
2021/03/25 06:17:47;;;;;;;38.23;19.83;;;-1.30;99.90;;;;;;6151860;28;20229;-75
2021/03/25 06:21:38;;;;;;;46.27;21.53;;;-1.20;99.90;;;;;;6150495;28;20672;-75
2021/03/25 06:24:48;;;;;;;41.60;20.43;;;-1.00;99.90;;;;;;6109366;29;20243;-75
2021/03/25 06:28:11;;;;;;;47.47;22.63;;;-0.90;99.90;;;;;;6109896;28;20278;-75
2021/03/25 06:31:30;;;;;;;49.33;21.53;;;-0.80;99.90;;;;;;6184004;28;20623;-75
2021/03/25 06:34:56;;;;;;;41.47;21.07;;;-0.70;99.90;;;;;;6167250;28;20226;-75
2021/03/25 06:38:06;;;;;;;47.83;22.67;;;-0.60;99.90;;;;;;6184010;28;20244;-75
2021/03/25 06:41:28;;;;;;;37.63;19.90;;;-0.50;99.90;;;;;;6182808;28;20256;-75
2021/03/25 06:44:41;;;;;;;41.10;20.73;;;-0.40;99.90;;;;;;6182807;28;20725;-75
2021/03/25 06:48:12;;;;;;;47.97;21.80;;;-0.30;99.90;;;;;;6183724;28;20239;-75
2021/03/25 06:51:22;;;;;;;42.17;19.93;;;-0.20;99.90;;;;;;6152783;28;20247;-75
2021/03/25 06:54:26;;;;;;;41.27;21.27;;;-0.20;99.90;;;;;;6182841;28;20221;-75
2021/03/25 06:57:55;;;;;;;36.73;18.97;;;-0.10;99.90;;;;;;6183021;28;20225;-75
2021/03/25 07:01:16;;;;;;;47.07;22.27;;;0.00;99.90;;;;;;6149698;28;20228;-75
2021/03/25 07:04:28;;;;;;;44.10;20.90;;;0.10;99.90;;;;;;6166044;28;20331;-75
2021/03/25 07:07:35;;;;;;;41.47;18.90;;;0.20;99.90;;;;;;6182277;28;20237;-75
2021/03/25 07:10:37;;;;;;;38.30;20.37;;;0.30;99.90;;;;;;6150057;28;20364;-75
2021/03/25 07:14:04;;;;;;;45.17;21.47;;;0.40;99.90;;;;;;6183518;28;20237;-76
2021/03/25 07:17:09;;;;;;;47.80;23.63;;;0.50;99.90;;;;;;6165677;28;20653;-76
2021/03/25 07:20:28;;;;;;;47.33;22.77;;;0.60;99.90;;;;;;6166396;28;20316;-76
2021/03/25 07:23:43;;;;;;;45.10;24.47;;;0.70;99.90;;;;;;6183100;28;20237;-76
2021/03/25 07:26:46;;;;;;;49.70;25.03;;;0.90;99.90;;;;;;6182990;28;20242;-76
2021/03/25 07:30:08;;;;;;;53.20;26.40;;;1.00;99.90;;;;;;6164781;28;20229;-75
2021/03/25 07:33:14;;;;;;;46.57;23.20;;;1.30;99.90;;;;;;6181960;28;20705;-75
2021/03/25 07:36:16;;;;;;;46.63;23.13;;;1.40;99.90;;;;;;6166080;28;20216;-75
2021/03/25 07:39:47;;;;;;;50.53;26.27;;;1.60;99.90;;;;;;6164627;28;20700;-76
2021/03/25 07:42:49;;;;;;;45.43;24.83;;;1.90;99.90;;;;;;6182719;28;20360;-76
2021/03/25 07:46:20;;;;;;;45.67;22.97;;;2.20;99.90;;;;;;6164738;28;20229;-76
2021/03/25 07:49:38;;;;;;;46.50;22.90;;;2.50;99.90;;;;;;6164828;28;20244;-76
2021/03/25 07:52:40;;;;;;;39.10;22.77;;;2.80;99.90;;;;;;6169899;28;20244;-76
2021/03/25 07:55:42;;;;;;;47.03;24.40;;;3.20;99.90;;;;;;6168738;28;20236;-76
2021/03/25 07:58:47;;;;;;;45.20;24.10;;;3.60;99.90;;;;;;6164596;28;20232;-76
2021/03/25 08:01:48;;;;;;;37.90;20.93;;;3.90;99.90;;;;;;6182269;28;20243;-76
2021/03/25 08:04:50;;;;;;;40.63;21.17;;;4.30;99.90;;;;;;6182293;28;20327;-76
2021/03/25 08:07:56;;;;;;;35.03;21.00;;;4.70;99.90;;;;;;6183075;28;20236;-76
2021/03/25 08:11:15;;;;;;;33.23;20.50;;;5.10;99.90;;;;;;6164954;28;20238;-76
2021/03/25 08:14:33;;;;;;;39.13;20.70;;;5.50;99.90;;;;;;6165410;28;20225;-76
2021/03/25 08:17:46;;;;;;;34.87;19.60;;;6.00;99.90;;;;;;6182095;28;20259;-76
2021/03/25 08:21:03;;;;;;;30.67;18.40;;;6.40;99.90;;;;;;6181698;28;20231;-76
2021/03/25 08:24:23;;;;;;;27.20;17.83;;;6.90;99.90;;;;;;6183141;28;20645;-76
2021/03/25 08:27:34;;;;;;;28.30;17.47;;;7.40;99.90;;;;;;6181769;28;20580;-76
2021/03/25 08:30:51;;;;;;;25.87;17.93;;;7.80;99.90;;;;;;6181781;28;20710;-76
2021/03/25 08:34:18;;;;;;;28.07;19.07;;;8.30;99.90;;;;;;6164430;28;20236;-76
2021/03/25 08:37:51;;;;;;;26.10;15.90;;;8.70;99.90;;;;;;6165745;28;20236;-76
2021/03/25 08:41:19;;;;;;;24.73;16.40;;;9.20;99.90;;;;;;6181245;28;20283;-76
2021/03/25 08:44:29;;;;;;;26.27;17.10;;;9.60;99.90;;;;;;6170681;28;20284;-77
2021/03/25 08:47:37;;;;;;;23.13;15.87;;;10.00;99.90;;;;;;6186437;28;20262;-77
2021/03/25 08:51:01;;;;;;;29.73;18.57;;;10.40;99.90;;;;;;6168203;28;20753;-77
2021/03/25 08:54:17;;;;;;;25.47;17.37;;;10.80;99.90;;;;;;6167478;28;20226;-74
2021/03/25 08:57:29;;;;;;;25.43;17.63;;;11.10;99.90;;;;;;6168423;28;20212;-74
2021/03/25 09:00:37;;;;;;;28.83;18.20;;;11.30;99.90;;;;;;6185352;28;20239;-74
2021/03/25 09:03:49;;;;;;;28.20;19.53;;;11.70;99.90;;;;;;6168516;28;20261;-74
2021/03/25 09:06:51;;;;;;;29.77;19.27;;;12.00;99.90;;;;;;6185451;28;20261;-74
2021/03/25 09:10:04;;;;;;;31.60;22.07;;;12.20;99.60;;;;;;6167850;28;20244;-74
2021/03/25 09:13:15;;;;;;;30.90;21.17;;;12.30;98.80;;;;;;6185669;28;20761;-74
2021/03/25 09:16:34;;;;;;;24.27;17.60;;;12.50;96.90;;;;;;6169473;28;20233;-75
2021/03/25 09:19:49;;;;;;;22.97;15.47;;;12.70;97.60;;;;;;6168366;28;20233;-75
2021/03/25 09:22:57;;;;;;;22.40;14.63;;;12.90;95.00;;;;;;6185370;28;20236;-75
2021/03/25 09:26:02;;;;;;;21.43;15.30;;;13.20;91.70;;;;;;6168159;28;20598;-75
2021/03/25 09:29:09;;;;;;;21.83;14.03;;;13.40;89.80;;;;;;6168117;28;20229;-75
2021/03/25 09:32:30;;;;;;;22.43;13.47;;;13.60;91.10;;;;;;6185331;28;20230;-75
2021/03/25 09:35:38;;;;;;;19.97;13.77;;;13.90;89.80;;;;;;6185765;28;20247;-74
2021/03/25 09:38:40;;;;;;;23.23;14.77;;;14.20;86.90;;;;;;6167291;28;20625;-75
2021/03/25 09:41:43;;;;;;;25.10;15.53;;;14.40;81.20;;;;;;6184514;28;20235;-75
2021/03/25 09:44:45;;;;;;;23.27;14.23;;;14.40;74.00;;;;;;6167011;28;20226;-75
2021/03/25 09:48:03;;;;;;;21.33;14.60;;;14.20;73.90;;;;;;6145259;28;20315;-75
2021/03/25 09:51:19;;;;;;;22.80;16.07;;;14.30;76.20;;;;;;6160784;28;20233;-75
2021/03/25 09:54:26;;;;;;;23.37;15.10;;;14.40;73.70;;;;;;6143552;28;20209;-75
2021/03/25 09:57:31;;;;;;;23.37;14.00;;;14.60;74.70;;;;;;6160335;28;20256;-75
2021/03/25 10:00:53;;;;;;;22.93;14.03;;;14.70;70.80;;;;;;6160706;28;20364;-75
2021/03/25 10:04:19;;;;;;;22.97;14.43;;;15.00;73.00;;;;;;6142627;28;20222;-75
2021/03/25 10:07:21;;;;;;;25.70;15.50;;;15.30;71.40;;;;;;6159980;28;20396;-75
2021/03/25 10:10:45;;;;;;;20.57;14.07;;;15.70;67.80;;;;;;6159891;28;20603;-75
2021/03/25 10:13:47;;;;;;;24.67;14.43;;;15.80;67.80;;;;;;6160250;28;20234;-75
2021/03/25 10:16:49;;;;;;;26.47;15.77;;;15.70;64.70;;;;;;6177469;28;20302;-75
2021/03/25 10:19:51;;;;;;;23.40;15.43;;;15.60;65.70;;;;;;6183452;28;20710;-75
2021/03/25 10:22:56;;;;;;;24.43;15.63;;;15.70;65.00;;;;;;6183922;28;20237;-75
2021/03/25 10:26:10;;;;;;;26.43;16.33;;;15.80;63.30;;;;;;6166462;28;20733;-75
2021/03/25 10:29:22;;;;;;;23.30;15.13;;;15.80;63.20;;;;;;6183422;28;20265;-75
2021/03/25 10:32:27;;;;;;;23.83;14.67;;;16.00;62.90;;;;;;6183867;28;20304;-75
2021/03/25 10:35:34;;;;;;;22.53;15.80;;;16.30;62.20;;;;;;6184099;28;20233;-75
2021/03/25 10:38:45;;;;;;;25.00;17.27;;;16.40;59.80;;;;;;6183445;28;20638;-75
2021/03/25 10:41:46;;;;;;;23.57;15.23;;;16.40;58.30;;;;;;6182786;28;20229;-75
2021/03/25 10:44:49;;;;;;;22.20;15.60;;;16.60;59.00;;;;;;6165941;28;20237;-75
2021/03/25 10:47:58;;;;;;;25.53;15.60;;;16.80;59.30;;;;;;6183208;28;20319;-76
2021/03/25 10:51:23;;;;;;;25.37;15.83;;;17.00;58.70;;;;;;6165123;28;20225;-76
2021/03/25 10:54:34;;;;;;;19.93;14.87;;;16.90;57.60;;;;;;6165804;28;20229;-76
2021/03/25 10:57:36;;;;;;;21.00;15.13;;;16.60;58.60;;;;;;6183025;28;20360;-76
2021/03/25 11:00:38;;;;;;;19.00;13.97;;;16.70;58.00;;;;;;6166756;28;20236;-76
2021/03/25 11:03:41;;;;;;;20.00;14.03;;;16.80;59.40;;;;;;6165842;28;20223;-75
2021/03/25 11:06:44;;;;;;;23.00;15.23;;;16.70;57.50;;;;;;6182149;28;20232;-76
2021/03/25 11:10:00;;;;;;;22.07;14.93;;;16.50;56.60;;;;;;6166183;28;20615;-75
2021/03/25 11:13:18;;;;;;;22.00;14.20;;;16.20;59.80;;;;;;6182516;28;20737;-75
2021/03/25 11:16:22;;;;;;;20.23;14.00;;;16.20;58.30;;;;;;6164650;28;20247;-75
2021/03/25 11:19:26;;;;;;;22.13;14.60;;;16.40;59.20;;;;;;6183058;28;20237;-75
2021/03/25 11:22:31;;;;;;;20.47;12.57;;;16.90;57.90;;;;;;6181918;28;20241;-75
2021/03/25 11:25:34;;;;;;;17.20;12.30;;;17.30;55.60;;;;;;6184118;28;20706;-75
2021/03/25 11:28:38;;;;;;;19.13;12.73;;;17.60;55.50;;;;;;6184176;28;20271;-75
2021/03/25 11:31:41;;;;;;;15.90;11.70;;;18.10;55.30;;;;;;6182188;28;20240;-75
2021/03/25 11:35:26;;;;;;;15.90;11.73;;;18.50;54.50;;;;;;6165714;28;20618;-75
2021/03/25 11:38:36;;;;;;;17.93;13.33;;;18.90;52.10;;;;;;6182272;28;20239;-76
2021/03/25 11:41:38;;;;;;;14.73;10.80;;;18.80;50.10;;;;;;6165225;28;20240;-76
2021/03/25 11:44:47;;;;;;;15.03;11.33;;;18.50;51.20;;;;;;6182349;28;20315;-76
2021/03/25 11:47:49;;;;;;;14.07;10.00;;;18.40;50.20;;;;;;6159203;28;20312;-76
2021/03/25 11:50:53;;;;;;;15.23;10.93;;;18.50;51.00;;;;;;6176106;28;20239;-76
2021/03/25 11:53:56;;;;;;;11.67;9.60;;;18.30;48.50;;;;;;6183141;28;20280;-76
2021/03/25 11:57:06;;;;;;;14.57;10.20;;;18.40;51.10;;;;;;6181920;28;20348;-76
2021/03/25 12:00:17;;;;;;;14.30;10.73;;;18.50;50.20;;;;;;6164708;28;20248;-75
2021/03/25 12:03:29;;;;;;;12.73;9.77;;;18.70;48.40;;;;;;6182385;28;20206;-76
2021/03/25 12:06:37;;;;;;;12.47;9.83;;;18.80;49.20;;;;;;6165083;28;20230;-76
2021/03/25 12:09:59;;;;;;;13.70;9.80;;;19.00;49.30;;;;;;6165648;28;20356;-76
2021/03/25 12:13:00;;;;;;;11.87;9.40;;;19.20;48.90;;;;;;6182460;28;20230;-76
2021/03/25 12:16:04;;;;;;;14.23;8.83;;;19.40;49.10;;;;;;6181401;28;20586;-76
2021/03/25 12:19:08;;;;;;;11.00;9.30;;;19.70;47.50;;;;;;6184187;28;20327;-76
2021/03/25 12:22:16;;;;;;;14.87;10.60;;;19.70;48.30;;;;;;6169091;28;20237;-76
2021/03/25 12:25:18;;;;;;;11.60;9.40;;;19.60;46.20;;;;;;6153183;28;20225;-76
2021/03/25 12:28:20;;;;;;;13.97;9.40;;;19.60;47.30;;;;;;6186461;28;20262;-76
2021/03/25 12:31:26;;;;;;;16.10;9.30;;;19.60;47.40;;;;;;6169281;28;20225;-75
2021/03/25 12:34:48;;;;;;;11.13;8.40;;;19.50;45.40;;;;;;6186397;28;20596;-76
2021/03/25 12:37:51;;;;;;;13.03;9.10;;;19.60;46.00;;;;;;6168865;28;20679;-76
2021/03/25 12:40:53;;;;;;;12.83;8.77;;;19.70;46.50;;;;;;6152207;28;20324;-76
2021/03/25 12:43:55;;;;;;;12.23;8.83;;;20.00;45.30;;;;;;6169294;28;20225;-76
2021/03/25 12:46:57;;;;;;;11.97;9.23;;;20.20;46.30;;;;;;6151350;28;20240;-76
2021/03/25 12:50:01;;;;;;;11.37;8.43;;;20.50;44.20;;;;;;6187367;28;20306;-76
2021/03/25 12:53:05;;;;;;;13.07;9.03;;;20.60;43.80;;;;;;6186555;28;20606;-76
2021/03/25 12:56:15;;;;;;;11.50;8.77;;;20.70;44.20;;;;;;6185390;28;20293;-76
2021/03/25 12:59:28;;;;;;;14.27;10.40;;;20.90;44.50;;;;;;6167944;28;20229;-76
2021/03/25 13:02:30;;;;;;;13.43;9.30;;;21.00;43.50;;;;;;6169562;28;20227;-76
2021/03/25 13:05:33;;;;;;;13.57;9.90;;;20.90;44.50;;;;;;6185594;28;20229;-76
2021/03/25 13:08:47;;;;;;;14.23;9.80;;;21.00;43.60;;;;;;6186285;28;20229;-76
2021/03/25 13:11:48;;;;;;;13.43;9.57;;;20.60;43.80;;;;;;6186072;28;20243;-76
2021/03/25 13:14:50;;;;;;;13.83;9.47;;;20.60;43.50;;;;;;6186018;28;20733;-76
2021/03/25 13:17:52;;;;;;;13.10;9.40;;;20.50;43.60;;;;;;6185725;28;20233;-76
2021/03/25 13:21:05;;;;;;;15.03;10.07;;;20.50;42.90;;;;;;6185175;28;20248;-76
2021/03/25 13:24:07;;;;;;;25.43;15.03;;;20.70;43.60;;;;;;6168721;28;20220;-76
2021/03/25 13:27:09;;;;;;;12.10;8.80;;;21.00;42.90;;;;;;6183967;28;20205;-76
2021/03/25 13:30:12;;;;;;;10.63;8.10;;;21.40;42.40;;;;;;6185116;28;20307;-76
2021/03/25 13:33:14;;;;;;;14.47;8.70;;;22.10;41.60;;;;;;6183575;28;20584;-76
2021/03/25 13:36:17;;;;;;;16.20;10.77;;;22.70;40.60;;;;;;6184158;28;20573;-76
2021/03/25 13:39:18;;;;;;;15.43;9.80;;;23.00;40.10;;;;;;6166925;28;20237;-76
2021/03/25 13:42:20;;;;;;;12.80;9.60;;;23.00;39.80;;;;;;6169079;28;20682;-76
2021/03/25 13:45:24;;;;;;;13.53;9.77;;;23.10;39.20;;;;;;6184293;28;20225;-76
2021/03/25 13:48:29;;;;;;;12.70;9.10;;;23.10;39.30;;;;;;6168020;28;20702;-76
2021/03/25 13:51:33;;;;;;;14.70;9.00;;;23.50;39.30;;;;;;6184278;28;20233;-76
2021/03/25 13:54:40;;;;;;;13.90;10.17;;;23.60;39.10;;;;;;6185424;28;20611;-76
2021/03/25 13:57:44;;;;;;;12.73;9.50;;;24.20;38.30;;;;;;6167374;28;20221;-76
2021/03/25 14:00:47;;;;;;;11.57;8.50;;;24.40;37.80;;;;;;6167430;28;20371;-76
2021/03/25 14:03:49;;;;;;;12.30;8.23;;;24.60;37.70;;;;;;6186714;28;20307;-76
2021/03/25 14:06:51;;;;;;;11.73;8.83;;;25.10;36.50;;;;;;6185326;28;20233;-76
2021/03/25 14:09:53;;;;;;;13.70;9.03;;;25.30;36.10;;;;;;6166032;28;20236;-76
2021/03/25 14:12:57;;;;;;;12.03;9.30;;;25.00;35.70;;;;;;6167194;28;20233;-76
2021/03/25 14:15:59;;;;;;;11.43;8.67;;;25.00;36.00;;;;;;6168204;28;20235;-76
2021/03/25 14:19:01;;;;;;;13.33;9.83;;;25.00;36.30;;;;;;6183115;28;20367;-75
2021/03/25 14:22:04;;;;;;;13.50;9.00;;;24.70;34.80;;;;;;6183121;28;20237;-75
2021/03/25 14:25:09;;;;;;;10.50;8.13;;;23.40;36.00;;;;;;6150802;28;20253;-75
2021/03/25 14:28:16;;;;;;;11.20;7.83;;;21.90;37.90;;;;;;6170184;28;20326;-75
2021/03/25 14:31:18;;;;;;;12.23;8.43;;;20.90;40.40;;;;;;6184529;28;20240;-75
2021/03/25 14:34:20;;;;;;;10.77;7.70;;;20.20;41.00;;;;;;6166138;28;20608;-75
2021/03/25 14:37:22;;;;;;;14.00;8.63;;;19.50;43.00;;;;;;6166283;28;20221;-75
2021/03/25 14:40:25;;;;;;;11.60;7.43;;;19.10;43.00;;;;;;6181912;28;20233;-75
2021/03/25 14:43:28;;;;;;;11.97;8.40;;;18.80;42.90;;;;;;6166433;28;20229;-75
2021/03/25 14:46:30;;;;;;;11.10;7.53;;;18.50;43.30;;;;;;6166072;28;20229;-75
2021/03/25 14:49:33;;;;;;;9.90;7.20;;;18.20;43.70;;;;;;6165851;28;20229;-75
2021/03/25 14:52:35;;;;;;;10.60;7.30;;;18.00;43.70;;;;;;6182524;28;20236;-75
2021/03/25 14:55:37;;;;;;;12.67;7.53;;;17.90;44.00;;;;;;6166702;28;20328;-75
2021/03/25 14:58:39;;;;;;;9.13;6.43;;;17.80;44.40;;;;;;6182486;28;20221;-75
2021/03/25 15:01:41;;;;;;;11.77;7.73;;;17.80;44.90;;;;;;6165648;28;20236;-75
2021/03/25 15:04:43;;;;;;;9.77;6.70;;;17.70;44.30;;;;;;6181387;28;20595;-75
2021/03/25 15:07:45;;;;;;;11.30;7.83;;;17.60;45.00;;;;;;6165945;28;20241;-75
2021/03/25 15:10:49;;;;;;;15.53;9.50;;;17.40;44.50;;;;;;6182800;28;20584;-75
2021/03/25 15:13:50;;;;;;;14.97;7.93;;;17.30;44.80;;;;;;6182521;28;20312;-75
2021/03/25 15:16:52;;;;;;;12.27;7.77;;;17.10;45.00;;;;;;6181301;28;20323;-74
2021/03/25 15:19:54;;;;;;;20.07;11.43;;;16.80;45.90;;;;;;6183516;28;20653;-75
2021/03/25 15:22:57;;;;;;;25.23;11.37;;;16.60;45.40;;;;;;6166052;28;20380;-75
2021/03/25 15:26:02;;;;;;;12.37;8.23;;;16.50;45.80;;;;;;6165658;28;20232;-75
2021/03/25 15:29:09;;;;;;;11.53;7.17;;;16.30;45.90;;;;;;6165803;28;20724;-75
2021/03/25 15:32:11;;;;;;;10.70;6.30;;;16.30;46.30;;;;;;6164889;28;20581;-75
2021/03/25 15:35:24;;;;;;;11.30;7.17;;;16.20;46.10;;;;;;6181516;28;20241;-74
2021/03/25 15:38:37;;;;;;;11.33;7.73;;;16.10;46.40;;;;;;6184622;28;20236;-75
2021/03/25 15:41:39;;;;;;;11.53;7.77;;;16.10;46.50;;;;;;6182209;28;20225;-74
2021/03/25 15:44:40;;;;;;;10.10;6.87;;;15.90;46.60;;;;;;6165073;28;20319;-75
2021/03/25 15:47:43;;;;;;;9.07;6.40;;;15.80;47.60;;;;;;6164979;28;20225;-74
2021/03/25 15:50:47;;;;;;;11.40;7.57;;;15.70;47.80;;;;;;6183323;28;20237;-75
2021/03/25 15:53:50;;;;;;;10.13;6.57;;;15.50;47.50;;;;;;6169988;28;20233;-74
2021/03/25 15:56:52;;;;;;;8.53;6.10;;;15.50;47.60;;;;;;6170498;28;20347;-74
2021/03/25 15:59:53;;;;;;;6.63;4.93;;;15.40;48.10;;;;;;6169456;28;20569;-75
2021/03/25 16:02:56;;;;;;;8.23;5.53;;;15.30;48.30;;;;;;6188333;28;20327;-75
2021/03/25 16:05:58;;;;;;;7.57;4.93;;;15.20;49.20;;;;;;6171250;28;20240;-74
2021/03/25 16:09:00;;;;;;;6.30;4.03;;;15.10;49.80;;;;;;6168561;28;20323;-74